الصفحة الرئيسية
METAR-TAF:

METAR-TAF

مطار :

Barahona, جمهورية الدومنيكان

دائرة عرض: 18-12N, خط طول: 071-06W, ارتفاع: 3 متر

مراقبة الطقس الحالي

تاريخ ووقت الإصدار 1ساعة و 4 دقيقة قبل الساعة 17:00UTC
ريح 10 عقدة من الجنوب الشرقي
درجة الحرارة 30°درجة مئوية
الرطوبة 79%
ضغط 1017 hPa
الرؤية 10 كم أو أكثر
غيوم قليلة على ارتفاع 2200 قدم

METAR: MDBH 261700Z 13010KT 9999 FEW022 30/26 Q1017

زمن: 14:04 (18:04 UTC)

توقعات

تاريخ ووقت الإصدار 2ساعات و 4 دقيقة قبل الساعة 16:00UTC
التوقعات صالحة من26 الساعة 18 UTC إلى 27 الساعة 18 UTC
ريح 10 عقدة من الجنوب الشرقي
الرؤية 10 كم أو أكثر
غيوم قليلة على ارتفاع 2200 قدم
غيوم متفرقة على ارتفاع 30000 قدم

TAF: MDBH 261600Z 2618/2718 13010KT 9999 FEW022 SCT300

أرصاد الطقس والتوقعات من أكثر من 4000 مطار (تقارير الطقس للمطار METAR والتنبؤ بالطقس بالمطارTAF).

المحطات المتاحة هي النقط الصفراء والحمراء على الخريطة.

حرك المؤشر فوق النقطة لمعرفة اسم المحطة.

ثم انقر لمعرفة أرصاد وتوقعات الطقس.

لتغيير الخارطة: اضغط على الأزرار الخضراء مع رمز الصليب الأسود للتكبير. على الزر الأخضر مع شرطة للتصغير، أو على الأسهم الخضراء للخرائط المجاورة.


METAR-TAF: